Time;durP1;ratioP1;P1;durP2;ratioP2;P2;SDS_P1;SDS_P2;PMS_P1;PMS_P2;Temp;Humidity;BMP_temperature;BMP_pressure;BME280_temperature;BME280_humidity;BME280_pressure;Samples;Min_cycle;Max_cycle;Signal;HPM_P1;HPM_P2
2023/07/06 00:02:00;;;;;;;;;;;19.30;57.70;;;;;;5071417;28;19935;-54
2023/07/06 00:04:25;;;;;;;;;;;19.30;57.70;;;;;;5071356;28;19923;-54
2023/07/06 00:06:51;;;;;;;;;;;19.30;57.70;;;;;;5072105;28;20258;-55
2023/07/06 00:09:16;;;;;;;;;;;19.30;57.70;;;;;;5061265;28;20337;-54
2023/07/06 00:11:44;;;;;;;;;;;19.30;57.70;;;;;;5050981;28;19954;-54
2023/07/06 00:14:10;;;;;;;;;;;19.30;57.70;;;;;;5052370;28;20358;-54
2023/07/06 00:16:35;;;;;;;;;;;19.30;57.80;;;;;;5051741;28;19913;-54
2023/07/06 00:19:01;;;;;;;;;;;19.30;57.80;;;;;;5052071;28;19966;-54
2023/07/06 00:21:27;;;;;;;;;;;19.30;57.90;;;;;;5051928;28;19912;-54
2023/07/06 00:23:52;;;;;;;;;;;19.30;57.90;;;;;;5051782;28;19909;-54
2023/07/06 00:26:20;;;;;;;;;;;19.30;57.90;;;;;;5067476;28;19920;-54
2023/07/06 00:28:48;;;;;;;;;;;19.30;58.00;;;;;;5072253;28;20369;-54
2023/07/06 00:31:21;;;;;;;;;;;19.30;58.00;;;;;;5072155;28;19919;-54
2023/07/06 00:33:46;;;;;;;;;;;19.30;58.00;;;;;;5077812;28;19939;-54
2023/07/06 00:36:12;;;;;;;;;;;19.30;58.00;;;;;;5071614;28;19909;-54
2023/07/06 00:38:37;;;;;;;;;;;19.30;58.00;;;;;;5051927;28;20368;-54
2023/07/06 00:41:03;;;;;;;;;;;19.30;58.10;;;;;;5051210;28;20281;-54
2023/07/06 00:43:45;;;;;;;;;;;19.30;58.10;;;;;;5052409;28;20365;-54
2023/07/06 00:46:10;;;;;;;;;;;19.20;58.10;;;;;;5050621;28;19924;-54
2023/07/06 00:48:36;;;;;;;;;;;19.30;58.20;;;;;;5054123;28;20384;-54
2023/07/06 00:51:07;;;;;;;;;;;19.20;58.20;;;;;;5051727;28;19913;-54
2023/07/06 00:53:35;;;;;;;;;;;19.30;58.20;;;;;;5065245;28;20000;-54
2023/07/06 00:56:01;;;;;;;;;;;19.20;58.10;;;;;;5071965;28;19955;-54
2023/07/06 00:58:39;;;;;;;;;;;19.30;58.20;;;;;;5071794;28;19956;-53
2023/07/06 01:01:05;;;;;;;;;;;19.20;58.10;;;;;;5070126;28;20419;-54
2023/07/06 01:03:31;;;;;;;;;;;19.20;58.10;;;;;;5070809;28;19978;-54
2023/07/06 01:05:59;;;;;;;;;;;19.20;58.20;;;;;;5070641;28;19908;-54
2023/07/06 01:08:25;;;;;;;;;;;19.20;58.20;;;;;;5071254;28;19908;-54
2023/07/06 01:10:52;;;;;;;;;;;19.30;58.30;;;;;;5063476;28;19936;-54
2023/07/06 01:13:18;;;;;;;;;;;19.10;58.20;;;;;;5051040;28;19920;-54
2023/07/06 01:16:07;;;;;;;;;;;19.20;58.30;;;;;;5057838;28;19912;-54
2023/07/06 01:18:51;;;;;;;;;;;19.30;58.30;;;;;;5046636;28;19917;-54
2023/07/06 01:21:19;;;;;;;;;;;19.20;58.30;;;;;;5051220;28;20007;-54
2023/07/06 01:24:05;;;;;;;;;;;19.20;58.20;;;;;;5064087;28;19987;-54
2023/07/06 01:26:30;;;;;;;;;;;19.20;58.30;;;;;;5070858;28;20003;-55
2023/07/06 01:29:00;;;;;;;;;;;19.20;58.20;;;;;;5075475;28;19970;-54
2023/07/06 01:31:36;;;;;;;;;;;19.20;58.20;;;;;;5080846;28;19966;-54
2023/07/06 01:34:04;;;;;;;;;;;19.20;58.30;;;;;;5054345;28;19909;-54
2023/07/06 01:36:34;;;;;;;;;;;19.20;58.30;;;;;;5057607;28;20387;-54
2023/07/06 01:39:09;;;;;;;;;;;19.20;58.30;;;;;;5074753;28;20007;-54
2023/07/06 01:41:35;;;;;;;;;;;19.20;58.40;;;;;;5060846;28;19908;-54
2023/07/06 01:44:00;;;;;;;;;;;19.20;58.40;;;;;;5053790;28;20062;-54
2023/07/06 01:46:26;;;;;;;;;;;19.20;58.40;;;;;;5072441;28;19974;-54
2023/07/06 01:48:51;;;;;;;;;;;19.20;58.40;;;;;;5074990;28;19917;-54
2023/07/06 01:51:21;;;;;;;;;;;19.20;58.50;;;;;;5072581;28;19917;-54
2023/07/06 01:53:49;;;;;;;;;;;19.10;58.40;;;;;;5058364;28;20436;-54
2023/07/06 01:56:19;;;;;;;;;;;19.10;59.10;;;;;;5055040;28;19909;-54
2023/07/06 01:58:51;;;;;;;;;;;19.20;58.50;;;;;;5074819;28;19920;-54
2023/07/06 02:01:21;;;;;;;;;;;19.20;58.50;;;;;;5073590;28;20444;-54
2023/07/06 02:03:47;;;;;;;;;;;19.20;58.50;;;;;;5074874;28;19912;-54
2023/07/06 02:06:12;;;;;;;;;;;19.10;58.50;;;;;;5074353;28;20475;-54
2023/07/06 02:08:41;;;;;;;;;;;19.10;58.60;;;;;;5061315;28;20412;-54
2023/07/06 02:11:10;;;;;;;;;;;19.10;58.70;;;;;;5052577;28;19927;-54
2023/07/06 02:13:35;;;;;;;;;;;19.10;58.70;;;;;;5053998;28;19909;-54
2023/07/06 02:16:04;;;;;;;;;;;19.10;58.70;;;;;;5053308;28;19909;-54
2023/07/06 02:18:29;;;;;;;;;;;19.10;58.60;;;;;;5054535;28;19909;-54
2023/07/06 02:20:55;;;;;;;;;;;19.10;58.60;;;;;;5055038;28;19924;-54
2023/07/06 02:23:20;;;;;;;;;;;19.10;58.60;;;;;;5063666;28;19915;-54
2023/07/06 02:25:45;;;;;;;;;;;19.10;58.70;;;;;;5073258;28;19972;-54
2023/07/06 02:28:11;;;;;;;;;;;19.10;58.70;;;;;;5074230;28;19982;-54
2023/07/06 02:30:37;;;;;;;;;;;19.10;58.60;;;;;;5072939;28;19920;-54
2023/07/06 02:33:03;;;;;;;;;;;19.10;58.70;;;;;;5055964;28;19909;-54
2023/07/06 02:35:28;;;;;;;;;;;19.10;58.70;;;;;;5054227;28;20431;-54
2023/07/06 02:37:54;;;;;;;;;;;19.10;58.70;;;;;;5063922;28;20391;-54
2023/07/06 02:40:20;;;;;;;;;;;19.10;58.70;;;;;;5068429;28;19912;-54
2023/07/06 02:42:45;;;;;;;;;;;19.10;58.80;;;;;;5052650;28;19909;-54
2023/07/06 02:45:11;;;;;;;;;;;19.10;58.90;;;;;;5071764;28;19931;-54
2023/07/06 02:47:36;;;;;;;;;;;19.10;58.90;;;;;;5074049;28;19912;-54
2023/07/06 02:50:03;;;;;;;;;;;19.10;58.90;;;;;;5073921;28;20069;-54
2023/07/06 02:52:29;;;;;;;;;;;19.10;58.90;;;;;;5065143;28;19924;-54
2023/07/06 02:54:54;;;;;;;;;;;19.10;58.80;;;;;;5053511;28;19909;-54
2023/07/06 02:57:20;;;;;;;;;;;19.10;58.80;;;;;;5053851;28;19912;-54
2023/07/06 02:59:45;;;;;;;;;;;19.10;58.80;;;;;;5053686;28;19947;-54
2023/07/06 03:02:12;;;;;;;;;;;19.10;58.80;;;;;;5053593;28;19915;-54
2023/07/06 03:04:38;;;;;;;;;;;19.10;58.90;;;;;;5062627;28;19917;-54
2023/07/06 03:07:04;;;;;;;;;;;19.10;58.90;;;;;;5072996;28;20458;-54
2023/07/06 03:09:29;;;;;;;;;;;19.10;58.90;;;;;;5072471;28;19913;-55
2023/07/06 03:11:55;;;;;;;;;;;19.10;59.00;;;;;;5056142;28;19986;-54
2023/07/06 03:14:25;;;;;;;;;;;19.10;58.90;;;;;;5055577;28;20300;-54
2023/07/06 03:16:53;;;;;;;;;;;19.10;59.00;;;;;;5053695;28;19908;-54
2023/07/06 03:19:18;;;;;;;;;;;19.10;59.00;;;;;;5058756;28;19916;-54
2023/07/06 03:21:44;;;;;;;;;;;19.00;58.90;;;;;;5071733;28;19917;-55
2023/07/06 03:24:09;;;;;;;;;;;19.10;59.00;;;;;;5072091;28;19916;-54
2023/07/06 03:26:36;;;;;;;;;;;19.00;58.90;;;;;;5053073;28;19913;-54
2023/07/06 03:29:03;;;;;;;;;;;19.10;59.10;;;;;;5070649;28;19909;-54
2023/07/06 03:31:29;;;;;;;;;;;19.00;59.00;;;;;;5073243;28;20387;-54
2023/07/06 03:33:55;;;;;;;;;;;19.00;59.10;;;;;;5071664;28;19909;-54
2023/07/06 03:36:21;;;;;;;;;;;19.00;59.10;;;;;;5072462;28;19919;-54
2023/07/06 03:38:49;;;;;;;;;;;19.00;59.10;;;;;;5056791;28;20003;-54
2023/07/06 03:41:17;;;;;;;;;;;19.00;59.20;;;;;;5051916;28;19913;-54
2023/07/06 03:43:43;;;;;;;;;;;19.00;59.10;;;;;;5058522;28;20398;-54
2023/07/06 03:46:09;;;;;;;;;;;19.00;59.20;;;;;;5072589;28;19975;-54
2023/07/06 03:48:35;;;;;;;;;;;19.00;59.20;;;;;;5072445;28;19909;-54
2023/07/06 03:51:02;;;;;;;;;;;19.00;59.20;;;;;;5050537;28;19920;-54
2023/07/06 03:53:28;;;;;;;;;;;19.00;59.20;;;;;;5064106;28;20387;-54
2023/07/06 03:55:53;;;;;;;;;;;19.00;59.20;;;;;;5072624;28;19909;-54
2023/07/06 03:58:21;;;;;;;;;;;19.00;59.30;;;;;;5061083;28;19912;-54
2023/07/06 04:00:47;;;;;;;;;;;19.00;59.30;;;;;;5054498;28;20368;-54
2023/07/06 04:03:13;;;;;;;;;;;18.90;59.20;;;;;;5070258;28;19916;-54
2023/07/06 04:05:39;;;;;;;;;;;18.90;59.20;;;;;;5071173;28;19919;-54
2023/07/06 04:08:06;;;;;;;;;;;19.00;59.30;;;;;;5071358;28;19909;-54
2023/07/06 04:10:32;;;;;;;;;;;19.00;59.30;;;;;;5062824;28;20392;-54
2023/07/06 04:12:58;;;;;;;;;;;19.00;59.30;;;;;;5050525;28;19956;-54
2023/07/06 04:15:24;;;;;;;;;;;19.00;59.30;;;;;;5052449;28;19978;-54
2023/07/06 04:17:52;;;;;;;;;;;19.00;59.40;;;;;;5064779;28;19958;-54
2023/07/06 04:20:21;;;;;;;;;;;19.00;59.40;;;;;;5050772;28;19917;-54
2023/07/06 04:22:47;;;;;;;;;;;18.90;59.40;;;;;;5049902;28;20015;-54
2023/07/06 04:25:14;;;;;;;;;;;19.00;59.50;;;;;;5052311;28;20464;-54
2023/07/06 04:27:42;;;;;;;;;;;19.00;59.60;;;;;;5052004;28;20368;-54
2023/07/06 04:30:09;;;;;;;;;;;18.90;59.50;;;;;;5052026;28;19916;-55
2023/07/06 04:32:35;;;;;;;;;;;19.00;59.60;;;;;;5066860;28;20339;-54
2023/07/06 04:35:00;;;;;;;;;;;19.00;59.80;;;;;;5070895;28;19908;-54
2023/07/06 04:37:26;;;;;;;;;;;19.00;59.60;;;;;;5070236;28;20262;-54
2023/07/06 04:39:51;;;;;;;;;;;19.00;59.70;;;;;;5071360;28;19916;-54
2023/07/06 04:42:17;;;;;;;;;;;19.00;59.80;;;;;;5053198;28;19920;-54
2023/07/06 04:44:43;;;;;;;;;;;18.90;59.70;;;;;;5066065;28;19944;-54
2023/07/06 04:47:08;;;;;;;;;;;18.90;59.60;;;;;;5051364;28;19917;-54
2023/07/06 04:49:33;;;;;;;;;;;18.90;59.80;;;;;;5051711;28;19958;-54
2023/07/06 04:52:00;;;;;;;;;;;19.00;59.80;;;;;;5051326;28;20027;-55
2023/07/06 04:54:25;;;;;;;;;;;18.90;59.80;;;;;;5050442;28;19919;-54
2023/07/06 04:56:51;;;;;;;;;;;18.90;59.80;;;;;;5051972;28;19913;-54
2023/07/06 04:59:16;;;;;;;;;;;18.90;59.90;;;;;;5068765;28;20385;-54
2023/07/06 05:01:42;;;;;;;;;;;19.00;59.90;;;;;;5071385;28;19973;-54
2023/07/06 05:04:09;;;;;;;;;;;19.00;59.90;;;;;;5075673;28;20258;-54
2023/07/06 05:06:34;;;;;;;;;;;19.00;59.90;;;;;;5075429;28;19916;-54
2023/07/06 05:09:04;;;;;;;;;;;19.00;60.00;;;;;;5053608;28;19912;-54
2023/07/06 05:11:30;;;;;;;;;;;19.00;60.00;;;;;;5055866;28;20019;-54
2023/07/06 05:13:56;;;;;;;;;;;19.00;59.90;;;;;;5055409;28;19908;-54
2023/07/06 05:16:22;;;;;;;;;;;19.00;59.90;;;;;;5064252;28;20390;-54
2023/07/06 05:18:48;;;;;;;;;;;19.00;59.90;;;;;;5070166;28;19967;-54
2023/07/06 05:21:14;;;;;;;;;;;19.00;60.00;;;;;;5053486;28;20296;-54
2023/07/06 05:23:40;;;;;;;;;;;19.00;59.90;;;;;;5053874;28;19963;-54
2023/07/06 05:26:06;;;;;;;;;;;19.00;60.00;;;;;;5071643;28;19944;-54
2023/07/06 05:28:32;;;;;;;;;;;19.00;60.00;;;;;;5072947;28;19919;-54
2023/07/06 05:30:57;;;;;;;;;;;19.00;59.90;;;;;;5054279;28;19917;-54
2023/07/06 05:33:23;;;;;;;;;;;19.00;60.00;;;;;;5058330;28;19959;-54
2023/07/06 05:35:48;;;;;;;;;;;19.00;60.00;;;;;;5056545;28;19917;-54
2023/07/06 05:38:14;;;;;;;;;;;19.00;60.20;;;;;;5054270;28;19909;-56
2023/07/06 05:40:40;;;;;;;;;;;19.00;60.10;;;;;;5055628;28;19916;-55
2023/07/06 05:43:05;;;;;;;;;;;19.00;60.10;;;;;;5055127;28;19909;-54
2023/07/06 05:45:31;;;;;;;;;;;19.00;60.10;;;;;;5058238;28;19927;-54
2023/07/06 05:47:56;;;;;;;;;;;19.00;60.00;;;;;;5074087;28;19938;-54
2023/07/06 05:50:21;;;;;;;;;;;19.00;59.90;;;;;;5074747;28;19916;-54
2023/07/06 05:52:47;;;;;;;;;;;19.00;60.00;;;;;;5065467;28;19922;-54
2023/07/06 05:55:13;;;;;;;;;;;19.00;60.10;;;;;;5055227;28;20000;-54
2023/07/06 05:57:39;;;;;;;;;;;19.00;60.10;;;;;;5073120;28;19916;-54
2023/07/06 06:00:09;;;;;;;;;;;19.00;60.10;;;;;;5056327;28;19913;-54
2023/07/06 06:02:35;;;;;;;;;;;19.00;60.10;;;;;;5057171;28;19912;-54
2023/07/06 06:05:00;;;;;;;;;;;19.00;60.10;;;;;;5054872;28;20008;-54
2023/07/06 06:07:26;;;;;;;;;;;19.10;60.20;;;;;;5054387;28;20427;-54
2023/07/06 06:09:51;;;;;;;;;;;19.10;60.40;;;;;;5054630;28;20571;-54
2023/07/06 06:12:20;;;;;;;;;;;19.00;60.30;;;;;;5060234;28;20570;-54
2023/07/06 06:14:46;;;;;;;;;;;19.00;60.30;;;;;;5072747;28;19909;-54
2023/07/06 06:17:12;;;;;;;;;;;19.00;60.30;;;;;;5074550;28;19912;-54
2023/07/06 06:19:38;;;;;;;;;;;19.10;60.30;;;;;;5074326;28;19926;-54
2023/07/06 06:22:05;;;;;;;;;;;19.10;60.30;;;;;;5059211;28;19959;-54
2023/07/06 06:24:30;;;;;;;;;;;19.10;60.30;;;;;;5054022;28;20328;-54
2023/07/06 06:26:55;;;;;;;;;;;19.10;60.40;;;;;;5054076;28;19952;-54
2023/07/06 06:29:21;;;;;;;;;;;19.10;60.40;;;;;;5053705;28;19909;-54
2023/07/06 06:31:46;;;;;;;;;;;19.10;60.50;;;;;;5063641;28;20423;-54
2023/07/06 06:34:12;;;;;;;;;;;19.10;60.60;;;;;;5069237;28;20425;-54
2023/07/06 06:36:37;;;;;;;;;;;19.10;60.50;;;;;;5072365;28;19967;-54
2023/07/06 06:39:04;;;;;;;;;;;19.10;60.50;;;;;;5072800;28;19908;-55
2023/07/06 06:41:29;;;;;;;;;;;19.10;60.50;;;;;;5060617;28;19962;-54
2023/07/06 06:43:56;;;;;;;;;;;19.10;60.60;;;;;;5054365;28;19995;-54
2023/07/06 06:46:23;;;;;;;;;;;19.10;60.50;;;;;;5069243;28;19927;-54
2023/07/06 06:48:48;;;;;;;;;;;19.10;60.50;;;;;;5072705;28;19909;-54
2023/07/06 06:51:14;;;;;;;;;;;19.10;60.50;;;;;;5071476;28;20015;-54
2023/07/06 06:53:40;;;;;;;;;;;19.10;60.50;;;;;;5067276;28;19994;-54
2023/07/06 06:56:06;;;;;;;;;;;19.10;60.50;;;;;;5073980;28;19908;-54
2023/07/06 06:58:32;;;;;;;;;;;19.10;60.50;;;;;;5055482;28;19916;-54
2023/07/06 07:00:58;;;;;;;;;;;19.10;60.30;;;;;;5052632;28;20336;-54
2023/07/06 07:03:23;;;;;;;;;;;19.10;60.40;;;;;;5053355;28;19944;-54
2023/07/06 07:05:57;;;;;;;;;;;19.10;60.20;;;;;;5053865;28;20418;-55
2023/07/06 07:08:22;;;;;;;;;;;19.10;60.10;;;;;;5061905;28;19957;-54
2023/07/06 07:10:57;;;;;;;;;;;19.10;60.20;;;;;;5064295;28;20451;-54
2023/07/06 07:13:25;;;;;;;;;;;19.10;60.20;;;;;;5054608;28;19913;-53
2023/07/06 07:15:52;;;;;;;;;;;19.10;60.20;;;;;;5053837;28;20171;-54
2023/07/06 07:18:18;;;;;;;;;;;19.10;60.20;;;;;;5065556;28;19995;-54
2023/07/06 07:20:43;;;;;;;;;;;19.10;60.10;;;;;;5071134;28;20410;-54
2023/07/06 07:23:09;;;;;;;;;;;19.10;60.10;;;;;;5056914;28;19917;-54
2023/07/06 07:25:37;;;;;;;;;;;19.10;60.00;;;;;;5061206;28;19912;-55
2023/07/06 07:28:02;;;;;;;;;;;19.10;60.00;;;;;;5062866;28;19969;-54
2023/07/06 07:30:28;;;;;;;;;;;19.10;60.00;;;;;;5067911;28;20320;-54
2023/07/06 07:32:53;;;;;;;;;;;19.10;59.90;;;;;;5063520;28;19919;-54
2023/07/06 07:35:19;;;;;;;;;;;19.10;59.90;;;;;;5051985;28;19912;-54
2023/07/06 07:37:50;;;;;;;;;;;19.10;59.80;;;;;;5051221;28;19955;-54
2023/07/06 07:40:17;;;;;;;;;;;19.10;59.70;;;;;;5060328;28;20388;-54
2023/07/06 07:42:46;;;;;;;;;;;19.10;59.60;;;;;;5053241;28;20364;-54
2023/07/06 07:45:11;;;;;;;;;;;19.20;59.60;;;;;;5064738;28;19981;-54
2023/07/06 07:47:37;;;;;;;;;;;19.20;59.50;;;;;;5067890;28;19923;-54
2023/07/06 07:50:05;;;;;;;;;;;19.10;59.30;;;;;;5064587;28;20265;-55
2023/07/06 07:52:30;;;;;;;;;;;19.20;59.30;;;;;;5066876;28;19915;-54
2023/07/06 07:54:56;;;;;;;;;;;19.20;59.30;;;;;;5051491;28;19917;-54
2023/07/06 07:57:21;;;;;;;;;;;19.20;59.30;;;;;;5052743;28;20125;-54
2023/07/06 07:59:48;;;;;;;;;;;19.20;59.20;;;;;;5052791;28;19925;-54
2023/07/06 08:02:14;;;;;;;;;;;19.20;59.20;;;;;;5051577;28;19912;-54
2023/07/06 08:04:39;;;;;;;;;;;19.20;59.10;;;;;;5067264;28;19919;-54
2023/07/06 08:07:05;;;;;;;;;;;19.30;59.10;;;;;;5070948;28;19908;-54
2023/07/06 08:09:31;;;;;;;;;;;19.30;59.10;;;;;;5065995;28;19912;-54
2023/07/06 08:11:56;;;;;;;;;;;19.30;59.10;;;;;;5056805;28;20409;-55
2023/07/06 08:14:35;;;;;;;;;;;19.30;59.10;;;;;;5051080;28;19913;-54
2023/07/06 08:17:00;;;;;;;;;;;19.30;58.90;;;;;;5050199;28;19944;-54
2023/07/06 08:19:26;;;;;;;;;;;19.30;58.80;;;;;;5056632;28;19956;-54
2023/07/06 08:21:52;;;;;;;;;;;19.30;58.60;;;;;;5052786;28;19966;-54
2023/07/06 08:24:17;;;;;;;;;;;19.30;58.50;;;;;;5052081;28;20372;-54
2023/07/06 08:26:43;;;;;;;;;;;19.30;58.40;;;;;;5057943;28;20000;-54
2023/07/06 08:29:09;;;;;;;;;;;19.30;58.30;;;;;;5060569;28;19998;-54
2023/07/06 08:31:34;;;;;;;;;;;19.30;58.20;;;;;;5058802;28;19952;-54
2023/07/06 08:34:00;;;;;;;;;;;19.30;58.20;;;;;;5051078;28;19916;-54
2023/07/06 08:36:27;;;;;;;;;;;19.30;58.30;;;;;;5052833;28;19913;-54
2023/07/06 08:38:54;;;;;;;;;;;19.30;58.20;;;;;;5057939;28;19939;-54
2023/07/06 08:41:29;;;;;;;;;;;19.30;58.10;;;;;;5057522;28;20131;-54
2023/07/06 08:43:55;;;;;;;;;;;19.30;58.40;;;;;;5048820;28;19913;-54
2023/07/06 08:46:20;;;;;;;;;;;19.30;58.20;;;;;;5050985;28;19928;-54
2023/07/06 08:48:46;;;;;;;;;;;19.30;58.10;;;;;;5059682;28;19920;-54
2023/07/06 08:51:15;;;;;;;;;;;19.30;58.00;;;;;;5068750;28;19920;-54
2023/07/06 08:53:43;;;;;;;;;;;19.30;58.00;;;;;;5056731;28;19920;-54
2023/07/06 08:56:09;;;;;;;;;;;19.30;58.00;;;;;;5052166;28;19909;-54
2023/07/06 08:58:36;;;;;;;;;;;19.30;58.00;;;;;;5053623;28;19912;-54
2023/07/06 09:01:06;;;;;;;;;;;19.30;57.90;;;;;;5061824;28;19966;-54
2023/07/06 09:03:33;;;;;;;;;;;19.40;58.00;;;;;;5050991;28;19920;-54
2023/07/06 09:05:59;;;;;;;;;;;19.40;57.90;;;;;;5052141;28;19909;-54
2023/07/06 09:08:24;;;;;;;;;;;19.40;57.80;;;;;;5051263;28;19909;-54
2023/07/06 09:10:49;;;;;;;;;;;19.40;57.70;;;;;;5054525;28;19921;-54
2023/07/06 09:13:24;;;;;;;;;;;19.40;57.70;;;;;;5051618;28;19909;-55
2023/07/06 09:15:57;;;;;;;;;;;19.40;57.70;;;;;;5057618;28;20423;-54
2023/07/06 09:18:22;;;;;;;;;;;19.40;57.60;;;;;;5057326;28;20310;-54
2023/07/06 09:20:49;;;;;;;;;;;19.40;57.50;;;;;;5072210;28;19952;-55
2023/07/06 09:23:14;;;;;;;;;;;19.40;57.40;;;;;;5070982;28;20250;-54
2023/07/06 09:25:42;;;;;;;;;;;19.40;57.40;;;;;;5068224;28;19957;-55
2023/07/06 09:28:10;;;;;;;;;;;19.40;57.30;;;;;;5051697;28;19913;-54
2023/07/06 09:30:38;;;;;;;;;;;19.40;57.30;;;;;;5050505;28;19919;-55
2023/07/06 09:33:24;;;;;;;;;;;19.40;57.70;;;;;;5055330;28;19935;-54
2023/07/06 09:35:52;;;;;;;;;;;19.40;57.30;;;;;;5060934;28;20377;-54
2023/07/06 09:38:18;;;;;;;;;;;19.40;57.20;;;;;;5066981;28;19971;-54
2023/07/06 09:40:43;;;;;;;;;;;19.40;57.00;;;;;;5058839;28;20378;-54
2023/07/06 09:43:19;;;;;;;;;;;19.40;57.10;;;;;;5064120;28;19923;-54
2023/07/06 09:45:44;;;;;;;;;;;19.40;56.90;;;;;;5070412;28;19920;-54
2023/07/06 09:48:29;;;;;;;;;;;19.40;56.90;;;;;;5060858;28;19920;-54
2023/07/06 09:51:06;;;;;;;;;;;19.50;56.70;;;;;;5055253;28;19913;-55
2023/07/06 09:53:32;;;;;;;;;;;19.50;56.70;;;;;;5074445;28;19980;-54
2023/07/06 09:55:58;;;;;;;;;;;19.50;56.70;;;;;;5053103;28;20023;-55
2023/07/06 09:58:24;;;;;;;;;;;19.50;56.80;;;;;;5055008;28;19913;-54
2023/07/06 10:01:10;;;;;;;;;;;19.50;56.70;;;;;;5055277;28;20364;-54
2023/07/06 10:03:54;;;;;;;;;;;19.50;56.80;;;;;;5061466;28;19912;-54
2023/07/06 10:06:19;;;;;;;;;;;19.50;56.80;;;;;;5066085;28;19921;-54
2023/07/06 10:08:48;;;;;;;;;;;19.50;56.70;;;;;;5055717;28;20325;-55
2023/07/06 10:11:16;;;;;;;;;;;19.50;56.40;;;;;;5063867;28;20266;-54
2023/07/06 10:13:56;;;;;;;;;;;19.60;56.20;;;;;;5059186;28;19921;-54
2023/07/06 10:16:33;;;;;;;;;;;19.60;56.10;;;;;;5054193;28;20369;-54
2023/07/06 10:19:07;;;;;;;;;;;19.60;56.00;;;;;;5053511;28;20312;-54
2023/07/06 10:22:01;;;;;;;;;;;19.60;56.10;;;;;;5054307;28;20294;-54
2023/07/06 10:24:36;;;;;;;;;;;19.60;56.40;;;;;;5056049;28;20046;-55
2023/07/06 10:27:02;;;;;;;;;;;19.60;55.90;;;;;;5065957;28;20364;-54
2023/07/06 10:29:31;;;;;;;;;;;19.60;56.00;;;;;;5073559;28;19935;-55
2023/07/06 10:31:58;;;;;;;;;;;19.60;54.70;;;;;;5057088;28;20357;-55
2023/07/06 10:34:29;;;;;;;;;;;19.60;55.60;;;;;;5054593;28;19962;-54
2023/07/06 10:36:54;;;;;;;;;;;19.60;55.90;;;;;;5052814;28;19913;-54
2023/07/06 10:39:23;;;;;;;;;;;19.60;55.50;;;;;;5052228;28;19948;-54
2023/07/06 10:41:53;;;;;;;;;;;19.60;55.30;;;;;;5054407;28;19909;-55
2023/07/06 10:44:40;;;;;;;;;;;19.60;54.70;;;;;;5052862;28;20423;-54
2023/07/06 10:47:06;;;;;;;;;;;19.70;54.70;;;;;;5053197;28;19921;-55
2023/07/06 10:49:32;;;;;;;;;;;19.80;54.60;;;;;;5054160;28;20404;-55
2023/07/06 10:51:58;;;;;;;;;;;19.80;54.80;;;;;;5052042;28;19920;-54
2023/07/06 10:54:24;;;;;;;;;;;19.80;54.80;;;;;;5068218;28;19919;-54
2023/07/06 10:57:03;;;;;;;;;;;19.70;54.70;;;;;;5070975;28;19939;-54
2023/07/06 10:59:45;;;;;;;;;;;19.80;54.80;;;;;;5052838;28;19917;-54
2023/07/06 11:02:14;;;;;;;;;;;19.80;55.00;;;;;;5053993;28;19916;-54
2023/07/06 11:04:40;;;;;;;;;;;20.00;55.00;;;;;;5053962;28;19912;-55
2023/07/06 11:07:09;;;;;;;;;;;20.00;55.30;;;;;;5056201;28;20369;-54
2023/07/06 11:09:47;;;;;;;;;;;20.00;55.30;;;;;;5073270;28;19908;-55
2023/07/06 11:12:18;;;;;;;;;;;20.10;55.10;;;;;;5053959;28;19920;-54
2023/07/06 11:14:44;;;;;;;;;;;20.10;55.10;;;;;;5053610;28;19909;-55
2023/07/06 11:17:13;;;;;;;;;;;20.10;54.60;;;;;;5057920;28;19970;-54
2023/07/06 11:19:48;;;;;;;;;;;20.10;54.90;;;;;;5052175;28;20385;-54
2023/07/06 11:22:16;;;;;;;;;;;20.20;55.20;;;;;;5051426;28;20377;-54
2023/07/06 11:24:44;;;;;;;;;;;20.20;55.10;;;;;;5052391;28;20478;-54
2023/07/06 11:27:16;;;;;;;;;;;20.30;55.90;;;;;;5060238;28;19916;-54
2023/07/06 11:29:41;;;;;;;;;;;20.30;55.20;;;;;;5073124;28;20040;-54
2023/07/06 11:32:16;;;;;;;;;;;20.30;54.30;;;;;;5053399;28;19944;-54
2023/07/06 11:34:42;;;;;;;;;;;20.30;54.00;;;;;;5052286;28;20551;-54
2023/07/06 11:37:07;;;;;;;;;;;20.30;54.10;;;;;;5054371;28;20004;-54
2023/07/06 11:39:54;;;;;;;;;;;20.20;53.90;;;;;;5067887;28;19965;-55
2023/07/06 11:42:24;;;;;;;;;;;20.20;54.10;;;;;;5051808;28;20312;-54
2023/07/06 11:44:52;;;;;;;;;;;20.20;54.00;;;;;;5051650;28;19913;-54
2023/07/06 11:47:30;;;;;;;;;;;20.10;54.00;;;;;;5051890;28;19967;-54
2023/07/06 11:49:57;;;;;;;;;;;20.10;54.10;;;;;;5070409;28;19920;-54
2023/07/06 11:52:24;;;;;;;;;;;20.10;54.70;;;;;;5056681;28;20392;-54
2023/07/06 11:55:05;;;;;;;;;;;20.10;54.90;;;;;;5052707;28;19916;-55
2023/07/06 11:57:54;;;;;;;;;;;20.10;55.00;;;;;;5060430;28;19916;-54
2023/07/06 12:02:58;;;;;;;;;;;20.10;54.60;;;;;;5058331;28;19951;-54
2023/07/06 12:05:29;;;;;;;;;;;20.10;54.20;;;;;;5056397;28;19912;-54
2023/07/06 12:07:56;;;;;;;;;;;20.00;54.30;;;;;;5059633;28;20349;-55
2023/07/06 12:10:22;;;;;;;;;;;20.00;54.20;;;;;;5055488;28;20058;-55
2023/07/06 12:12:47;;;;;;;;;;;20.00;54.50;;;;;;5067621;28;19954;-54
2023/07/06 12:15:13;;;;;;;;;;;20.00;54.60;;;;;;5051627;28;19935;-54
2023/07/06 12:17:38;;;;;;;;;;;20.00;54.60;;;;;;5052120;28;19995;-54
2023/07/06 12:20:09;;;;;;;;;;;20.00;54.70;;;;;;5052896;28;20014;-55
2023/07/06 12:22:34;;;;;;;;;;;20.00;54.70;;;;;;5066061;28;19913;-55
2023/07/06 12:24:59;;;;;;;;;;;20.00;54.80;;;;;;5070232;28;19916;-55
2023/07/06 12:27:25;;;;;;;;;;;20.00;54.80;;;;;;5065948;28;19963;-54
2023/07/06 12:29:52;;;;;;;;;;;20.10;54.90;;;;;;5071106;28;19954;-54
2023/07/06 12:32:20;;;;;;;;;;;20.00;55.00;;;;;;5051078;28;19916;-55
2023/07/06 12:34:46;;;;;;;;;;;20.10;55.10;;;;;;5064550;28;20352;-54
2023/07/06 12:37:13;;;;;;;;;;;20.10;55.10;;;;;;5067816;28;19922;-54
2023/07/06 12:39:40;;;;;;;;;;;20.10;55.00;;;;;;5071865;28;20350;-54
2023/07/06 12:42:06;;;;;;;;;;;20.10;55.10;;;;;;5054382;28;19951;-55
2023/07/06 12:44:32;;;;;;;;;;;20.10;55.10;;;;;;5052547;28;19909;-54
2023/07/06 12:47:01;;;;;;;;;;;20.20;55.10;;;;;;5052189;28;19935;-54
2023/07/06 12:49:27;;;;;;;;;;;20.30;55.10;;;;;;5064133;28;19913;-55
2023/07/06 12:51:54;;;;;;;;;;;20.30;54.80;;;;;;5061079;28;19920;-55
2023/07/06 12:54:26;;;;;;;;;;;20.40;54.60;;;;;;5050301;28;19982;-54
2023/07/06 12:56:58;;;;;;;;;;;20.40;54.70;;;;;;5052070;28;19936;-54
2023/07/06 12:59:24;;;;;;;;;;;20.50;54.70;;;;;;5050852;28;19908;-55
2023/07/06 13:01:49;;;;;;;;;;;20.50;54.50;;;;;;5053450;28;20411;-55
2023/07/06 13:04:15;;;;;;;;;;;20.50;54.50;;;;;;5056140;28;19925;-55
2023/07/06 13:06:44;;;;;;;;;;;20.60;54.60;;;;;;5061726;28;19913;-54
2023/07/06 13:09:13;;;;;;;;;;;20.60;54.70;;;;;;5051584;28;19913;-54
2023/07/06 13:11:39;;;;;;;;;;;20.50;54.70;;;;;;5051029;28;19924;-55
2023/07/06 13:14:06;;;;;;;;;;;20.50;54.90;;;;;;5051888;28;19912;-55
2023/07/06 13:16:39;;;;;;;;;;;20.40;55.00;;;;;;5051878;28;19915;-54
2023/07/06 13:19:05;;;;;;;;;;;20.40;55.10;;;;;;5051924;28;19940;-54
2023/07/06 13:21:33;;;;;;;;;;;20.40;55.30;;;;;;5061276;28;20297;-54
2023/07/06 13:23:58;;;;;;;;;;;20.40;55.30;;;;;;5072173;28;20414;-54
2023/07/06 13:26:26;;;;;;;;;;;20.40;55.40;;;;;;5054525;28;19917;-55
2023/07/06 13:28:52;;;;;;;;;;;20.40;55.40;;;;;;5064011;28;19935;-54
2023/07/06 13:31:19;;;;;;;;;;;20.40;55.30;;;;;;5076036;28;19917;-55
2023/07/06 13:33:45;;;;;;;;;;;20.50;55.50;;;;;;5075809;28;19916;-54
2023/07/06 13:36:12;;;;;;;;;;;20.50;55.40;;;;;;5072383;28;19916;-55
2023/07/06 13:38:37;;;;;;;;;;;20.60;56.10;;;;;;5056425;28;19923;-55
2023/07/06 13:41:03;;;;;;;;;;;20.60;55.00;;;;;;5055777;28;20004;-55
2023/07/06 13:43:28;;;;;;;;;;;20.60;55.50;;;;;;5063524;28;19909;-55
2023/07/06 13:45:54;;;;;;;;;;;20.60;55.30;;;;;;5060223;28;19921;-54
2023/07/06 13:48:20;;;;;;;;;;;20.60;55.30;;;;;;5075270;28;19912;-54
2023/07/06 13:50:45;;;;;;;;;;;20.70;55.50;;;;;;5060192;28;19928;-55
2023/07/06 13:53:11;;;;;;;;;;;20.70;55.50;;;;;;5057293;28;19920;-55
2023/07/06 13:55:50;;;;;;;;;;;20.70;55.60;;;;;;5074993;28;19917;-54
2023/07/06 13:58:16;;;;;;;;;;;20.70;55.30;;;;;;5058372;28;19947;-55
2023/07/06 14:00:42;;;;;;;;;;;20.70;55.50;;;;;;5065362;28;19916;-55
2023/07/06 14:03:12;;;;;;;;;;;20.70;55.50;;;;;;5075148;28;19991;-54
2023/07/06 14:05:38;;;;;;;;;;;20.60;55.50;;;;;;5073821;28;20404;-55
2023/07/06 14:08:03;;;;;;;;;;;20.50;55.40;;;;;;5066754;28;20011;-54
2023/07/06 14:10:29;;;;;;;;;;;20.50;55.40;;;;;;5055581;28;20297;-55
2023/07/06 14:12:54;;;;;;;;;;;20.50;55.60;;;;;;5054596;28;19909;-55
2023/07/06 14:15:20;;;;;;;;;;;20.50;55.80;;;;;;5065210;28;19960;-54
2023/07/06 14:17:46;;;;;;;;;;;20.50;55.80;;;;;;5057106;28;19919;-55
2023/07/06 14:20:11;;;;;;;;;;;20.50;55.90;;;;;;5067526;28;19917;-54
2023/07/06 14:22:37;;;;;;;;;;;20.40;56.30;;;;;;5058324;28;19920;-54